Time;durP1;ratioP1;P1;durP2;ratioP2;P2;SDS_P1;SDS_P2;PMS_P1;PMS_P2;Temp;Humidity;BMP_temperature;BMP_pressure;BME280_temperature;BME280_humidity;BME280_pressure;Samples;Min_cycle;Max_cycle;Signal;HPM_P1;HPM_P2
2022/09/09 00:01:36;;;;;;;8.07;7.22;;;14.40;99.90;;;;;;5065981;28;20044;-56
2022/09/09 00:04:25;;;;;;;12.30;7.57;;;14.40;99.90;;;;;;5057555;28;20048;-56
2022/09/09 00:07:14;;;;;;;9.98;7.65;;;14.30;99.90;;;;;;5068989;28;20180;-56
2022/09/09 00:10:07;;;;;;;14.80;7.53;;;14.30;99.90;;;;;;5068600;28;20429;-56
2022/09/09 00:13:17;;;;;;;12.65;7.75;;;14.30;99.90;;;;;;5067855;28;20060;-56
2022/09/09 00:16:12;;;;;;;11.45;6.47;;;14.30;99.90;;;;;;5067252;28;20063;-56
2022/09/09 00:18:47;;;;;;;7.40;6.45;;;14.20;99.90;;;;;;5060439;28;20097;-56
2022/09/09 00:21:17;;;;;;;10.63;7.68;;;14.20;99.90;;;;;;5069046;28;20044;-56
2022/09/09 00:23:51;;;;;;;9.25;6.55;;;14.20;99.90;;;;;;5068491;28;20066;-56
2022/09/09 00:26:31;;;;;;;13.48;6.68;;;14.20;99.90;;;;;;5068700;28;20048;-56
2022/09/09 00:29:12;;;;;;;9.40;6.35;;;14.20;99.90;;;;;;5068011;28;20111;-56
2022/09/09 00:31:38;;;;;;;8.48;6.35;;;14.20;99.90;;;;;;5068072;28;20402;-56
2022/09/09 00:34:13;;;;;;;11.85;6.70;;;14.20;99.90;;;;;;5068502;28;20073;-56
2022/09/09 00:36:41;;;;;;;10.32;6.32;;;14.20;99.90;;;;;;5071442;28;20505;-56
2022/09/09 00:39:16;;;;;;;12.48;7.63;;;14.20;99.90;;;;;;5075043;28;20067;-56
2022/09/09 00:42:08;;;;;;;9.45;7.22;;;14.20;99.90;;;;;;5059825;28;20048;-56
2022/09/09 00:44:37;;;;;;;9.70;6.20;;;14.20;99.90;;;;;;5074027;28;20704;-56
2022/09/09 00:47:20;;;;;;;11.55;6.68;;;14.20;99.90;;;;;;5056082;28;20060;-56
2022/09/09 00:49:49;;;;;;;10.25;7.55;;;14.10;99.90;;;;;;5073892;28;20051;-56
2022/09/09 00:52:28;;;;;;;10.75;7.28;;;14.10;99.90;;;;;;5074104;28;20049;-56
2022/09/09 00:55:18;;;;;;;10.30;7.40;;;14.00;99.90;;;;;;5074645;28;20055;-57
2022/09/09 00:57:46;;;;;;;8.32;6.20;;;14.00;99.90;;;;;;5060309;28;20648;-56
2022/09/09 01:00:24;;;;;;;10.82;7.32;;;14.00;99.90;;;;;;5074045;28;20045;-58
2022/09/09 01:02:59;;;;;;;9.30;7.13;;;14.00;99.90;;;;;;5074624;28;20052;-56
2022/09/09 01:05:57;;;;;;;8.30;6.63;;;13.90;99.90;;;;;;5074852;28;20101;-56
2022/09/09 01:08:54;;;;;;;11.77;6.70;;;13.90;99.90;;;;;;5029207;28;20608;-56
2022/09/09 01:11:46;;;;;;;11.00;7.05;;;14.00;99.90;;;;;;5071133;28;20044;-56
2022/09/09 01:14:32;;;;;;;9.27;7.18;;;13.90;99.90;;;;;;5036303;28;20059;-56
2022/09/09 01:17:05;;;;;;;12.25;7.60;;;13.90;99.90;;;;;;5071539;28;20052;-56
2022/09/09 01:19:43;;;;;;;11.27;6.60;;;13.90;99.90;;;;;;5072655;28;20439;-57
2022/09/09 01:22:11;;;;;;;8.00;6.35;;;13.90;99.90;;;;;;5074700;28;20052;-56
2022/09/09 01:25:05;;;;;;;8.93;7.35;;;13.80;99.90;;;;;;5074297;28;20508;-56
2022/09/09 01:27:32;;;;;;;8.48;6.18;;;13.80;99.90;;;;;;5056075;28;20553;-56
2022/09/09 01:29:59;;;;;;;9.00;6.65;;;13.70;99.90;;;;;;5074876;28;20604;-57
2022/09/09 01:32:48;;;;;;;8.45;6.18;;;13.80;99.90;;;;;;5056186;28;20051;-57
2022/09/09 01:36:05;;;;;;;9.07;6.85;;;13.70;99.90;;;;;;5074300;28;20128;-56
2022/09/09 01:38:32;;;;;;;8.20;5.93;;;13.60;99.90;;;;;;5019957;28;20402;-56
2022/09/09 01:40:58;;;;;;;9.07;5.93;;;13.70;99.90;;;;;;5074372;28;20131;-57
2022/09/09 01:43:25;;;;;;;9.20;5.63;;;13.60;99.90;;;;;;5074283;28;20044;-57
2022/09/09 01:45:54;;;;;;;9.52;6.22;;;13.60;99.90;;;;;;5074144;28;20424;-56
2022/09/09 01:48:22;;;;;;;7.60;6.18;;;13.60;99.90;;;;;;5073597;28;20052;-56
2022/09/09 01:50:48;;;;;;;10.82;6.13;;;13.60;99.90;;;;;;5070673;28;20047;-56
2022/09/09 01:53:16;;;;;;;11.65;7.88;;;13.60;99.90;;;;;;5070732;28;20398;-56
2022/09/09 01:55:56;;;;;;;10.52;6.78;;;13.60;99.90;;;;;;5070548;28;20048;-56
2022/09/09 01:58:25;;;;;;;7.55;6.85;;;13.60;99.90;;;;;;5068473;28;20084;-56
2022/09/09 02:01:17;;;;;;;10.95;7.35;;;13.50;99.90;;;;;;5071227;28;20052;-56
2022/09/09 02:03:50;;;;;;;13.18;7.68;;;13.40;99.90;;;;;;5070660;28;20048;-56
2022/09/09 02:06:25;;;;;;;12.38;7.10;;;13.50;99.90;;;;;;5071047;28;20059;-56
2022/09/09 02:08:55;;;;;;;12.48;6.78;;;13.50;99.90;;;;;;5071344;28;20052;-56
2022/09/09 02:11:26;;;;;;;9.25;6.95;;;13.40;99.90;;;;;;5071107;28;20052;-56
2022/09/09 02:14:17;;;;;;;11.98;7.13;;;13.40;99.90;;;;;;5070984;28;20555;-57
2022/09/09 02:16:56;;;;;;;8.50;6.85;;;13.40;99.90;;;;;;5062434;28;20055;-57
2022/09/09 02:19:27;;;;;;;11.30;6.82;;;13.40;99.90;;;;;;5070696;28;20056;-56
2022/09/09 02:21:55;;;;;;;16.00;6.90;;;13.40;99.90;;;;;;5070694;28;20041;-56
2022/09/09 02:24:22;;;;;;;8.18;5.95;;;13.40;99.90;;;;;;5052190;28;20052;-56
2022/09/09 02:26:52;;;;;;;13.63;8.23;;;13.50;99.90;;;;;;5051639;28;20036;-56
2022/09/09 02:29:24;;;;;;;7.32;6.10;;;13.40;99.90;;;;;;5069656;28;20417;-58
2022/09/09 02:31:53;;;;;;;9.15;5.82;;;13.50;99.90;;;;;;5054923;28;20048;-56
2022/09/09 02:34:22;;;;;;;9.02;6.57;;;13.50;99.90;;;;;;5069861;28;20048;-56
2022/09/09 02:36:49;;;;;;;10.73;6.80;;;13.50;99.90;;;;;;5070455;28;20049;-56
2022/09/09 02:39:15;;;;;;;14.57;6.57;;;13.50;99.90;;;;;;5070253;28;20441;-56
2022/09/09 02:41:42;;;;;;;7.95;5.60;;;13.60;99.90;;;;;;5070826;28;20040;-56
2022/09/09 02:44:17;;;;;;;7.50;5.97;;;13.60;99.90;;;;;;5051172;28;20178;-56
2022/09/09 02:47:03;;;;;;;6.28;5.43;;;13.60;99.90;;;;;;5069997;28;20517;-56
2022/09/09 02:49:58;;;;;;;9.77;6.13;;;13.60;99.90;;;;;;5069203;28;20600;-56
2022/09/09 02:52:42;;;;;;;8.32;5.22;;;13.70;99.90;;;;;;5069290;28;20041;-56
2022/09/09 02:55:13;;;;;;;;;;;13.70;99.90;;;;;;5071049;28;20044;-56
2022/09/09 02:57:41;;;;;;;8.05;4.90;;;13.80;99.90;;;;;;5059277;28;19928;-56
2022/09/09 03:00:07;;;;;;;16.42;6.05;;;13.80;99.90;;;;;;5069338;28;20124;-56
2022/09/09 03:02:33;;;;;;;12.90;6.20;;;13.80;99.90;;;;;;5060644;28;20084;-56
2022/09/09 03:04:59;;;;;;;8.05;5.40;;;13.90;99.90;;;;;;5069288;28;20076;-56
2022/09/09 03:07:24;;;;;;;12.73;5.63;;;13.90;99.90;;;;;;5069850;28;20061;-56
2022/09/09 03:09:50;;;;;;;12.88;5.90;;;14.00;99.90;;;;;;5051885;28;20502;-56
2022/09/09 03:12:16;;;;;;;8.32;5.05;;;14.00;99.90;;;;;;5069837;28;20391;-56
2022/09/09 03:14:43;;;;;;;6.13;5.38;;;14.20;99.90;;;;;;5050756;28;20139;-56
2022/09/09 03:17:09;;;;;;;5.47;4.30;;;14.20;99.90;;;;;;5064789;28;20041;-56
2022/09/09 03:19:35;;;;;;;5.32;4.20;;;14.20;99.90;;;;;;5049662;28;20056;-56
2022/09/09 03:22:01;;;;;;;7.10;4.63;;;14.20;99.90;;;;;;5069356;28;20048;-56
2022/09/09 03:24:27;;;;;;;9.27;5.60;;;14.20;99.90;;;;;;5069359;28;20048;-56
2022/09/09 03:26:53;;;;;;;7.85;4.75;;;14.30;99.90;;;;;;5069165;28;20102;-56
2022/09/09 03:29:18;;;;;;;6.45;4.43;;;14.30;99.90;;;;;;5068977;28;20055;-56
2022/09/09 03:31:45;;;;;;;5.97;4.65;;;14.30;99.90;;;;;;5067680;28;20665;-56
2022/09/09 03:34:11;;;;;;;10.18;4.72;;;14.40;99.90;;;;;;5068972;28;20132;-56
2022/09/09 03:36:37;;;;;;;9.10;4.18;;;14.40;99.90;;;;;;5068927;28;20048;-56
2022/09/09 03:39:03;;;;;;;4.95;4.15;;;14.40;99.90;;;;;;5069188;28;20052;-56
2022/09/09 03:41:29;;;;;;;8.18;4.00;;;14.40;99.90;;;;;;5069250;28;20194;-57
2022/09/09 03:43:55;;;;;;;4.57;3.58;;;14.40;99.90;;;;;;5068228;28;20080;-56
2022/09/09 03:46:24;;;;;;;6.57;3.47;;;14.50;99.90;;;;;;5068561;28;20052;-56
2022/09/09 03:48:49;;;;;;;9.60;3.50;;;14.50;99.90;;;;;;5067557;28;20497;-56
2022/09/09 03:51:15;;;;;;;7.93;3.45;;;14.50;99.90;;;;;;5068726;28;20088;-56
2022/09/09 03:53:42;;;;;;;7.38;2.63;;;14.70;99.90;;;;;;5068270;28;20086;-56
2022/09/09 03:56:09;;;;;;;6.32;4.82;;;14.50;99.90;;;;;;5050812;28;20456;-56
2022/09/09 03:58:36;;;;;;;9.18;4.32;;;14.60;99.90;;;;;;5049842;28;20486;-56
2022/09/09 04:01:04;;;;;;;5.20;2.90;;;14.60;99.90;;;;;;5068971;28;20072;-56
2022/09/09 04:03:31;;;;;;;4.45;2.67;;;14.60;99.90;;;;;;5068451;28;20053;-56
2022/09/09 04:05:59;;;;;;;9.43;3.33;;;14.70;99.90;;;;;;5068574;28;20037;-56
2022/09/09 04:08:25;;;;;;;5.75;2.92;;;14.60;99.90;;;;;;5050295;28;20060;-56
2022/09/09 04:10:51;;;;;;;7.03;3.40;;;14.60;99.90;;;;;;5068811;28;20198;-56
2022/09/09 04:13:18;;;;;;;5.70;3.42;;;14.60;99.90;;;;;;5068521;28;20089;-56
2022/09/09 04:15:55;;;;;;;6.47;3.58;;;14.60;99.90;;;;;;5069042;28;20117;-56
2022/09/09 04:18:21;;;;;;;5.43;2.85;;;14.70;99.90;;;;;;5068325;28;20443;-56
2022/09/09 04:20:51;;;;;;;6.55;3.70;;;14.70;99.90;;;;;;5069050;28;20517;-56
2022/09/09 04:23:18;;;;;;;7.45;3.85;;;14.70;99.90;;;;;;5068075;28;20503;-57
2022/09/09 04:25:46;;;;;;;3.78;2.13;;;14.60;99.90;;;;;;5052336;28;20037;-56
2022/09/09 04:28:16;;;;;;;6.32;2.85;;;14.70;99.90;;;;;;5067668;28;20174;-56
2022/09/09 04:30:43;;;;;;;3.58;2.15;;;14.60;99.90;;;;;;5067040;28;20169;-56
2022/09/09 04:33:12;;;;;;;4.35;2.97;;;14.60;99.90;;;;;;5067977;28;20500;-56
2022/09/09 04:35:38;;;;;;;4.72;2.65;;;14.60;99.90;;;;;;5067550;28;20052;-56
2022/09/09 04:38:07;;;;;;;3.53;2.53;;;14.60;99.90;;;;;;5061585;28;20037;-56
2022/09/09 04:40:33;;;;;;;5.07;2.80;;;14.60;99.90;;;;;;5049982;28;20052;-57
2022/09/09 04:42:59;;;;;;;9.45;3.78;;;14.60;99.90;;;;;;5053019;28;20033;-57
2022/09/09 04:45:26;;;;;;;3.13;2.42;;;14.60;99.90;;;;;;5049757;28;20056;-56
2022/09/09 04:47:52;;;;;;;7.57;3.28;;;14.60;99.90;;;;;;5050535;28;20493;-57
2022/09/09 04:50:18;;;;;;;5.10;3.17;;;14.50;99.90;;;;;;5050514;28;20403;-57
2022/09/09 04:52:44;;;;;;;7.10;3.72;;;14.60;99.90;;;;;;5061288;28;20045;-57
2022/09/09 04:55:10;;;;;;;4.35;3.58;;;14.50;99.90;;;;;;5068018;28;20451;-56
2022/09/09 04:57:36;;;;;;;3.72;3.22;;;14.50;99.90;;;;;;5066701;28;20090;-57
2022/09/09 05:00:03;;;;;;;6.18;3.78;;;14.50;99.90;;;;;;5067506;28;20118;-57
2022/09/09 05:02:30;;;;;;;6.45;2.92;;;14.50;99.90;;;;;;5068383;28;20044;-56
2022/09/09 05:04:56;;;;;;;5.28;3.55;;;14.50;99.90;;;;;;5067804;28;20529;-56
2022/09/09 05:07:21;;;;;;;5.53;3.67;;;14.50;99.90;;;;;;5067266;28;20045;-57
2022/09/09 05:09:49;;;;;;;6.57;4.43;;;14.50;99.90;;;;;;5051361;28;20371;-57
2022/09/09 05:12:16;;;;;;;6.20;3.88;;;14.40;99.90;;;;;;5068092;28;20410;-57
2022/09/09 05:14:43;;;;;;;7.70;4.68;;;14.50;99.90;;;;;;5067544;28;20052;-57
2022/09/09 05:17:09;;;;;;;6.18;4.72;;;14.50;99.90;;;;;;5068291;28;20037;-57
2022/09/09 05:19:35;;;;;;;5.88;4.97;;;14.50;99.90;;;;;;5067065;28;20514;-57
2022/09/09 05:22:01;;;;;;;7.25;4.97;;;14.50;99.90;;;;;;5067528;28;20044;-56
2022/09/09 05:24:27;;;;;;;8.77;5.00;;;14.50;99.90;;;;;;5047231;28;20056;-56
2022/09/09 05:26:52;;;;;;;7.15;5.53;;;14.40;99.90;;;;;;5071891;28;20040;-62
2022/09/09 05:29:21;;;;;;;7.75;4.82;;;14.40;99.90;;;;;;5070616;28;20056;-58
2022/09/09 05:31:46;;;;;;;6.10;5.07;;;14.40;99.90;;;;;;5055218;28;20040;-56
2022/09/09 05:34:12;;;;;;;5.70;5.05;;;14.50;99.90;;;;;;5070610;28;20047;-56
2022/09/09 05:36:38;;;;;;;6.85;5.38;;;14.50;99.90;;;;;;5053688;28;20079;-60
2022/09/09 05:39:04;;;;;;;7.82;5.55;;;14.40;99.90;;;;;;5071991;28;20049;-61
2022/09/09 05:41:30;;;;;;;10.65;6.32;;;14.50;99.90;;;;;;5071636;28;20036;-58
2022/09/09 05:43:58;;;;;;;8.70;5.60;;;14.40;99.90;;;;;;5070581;28;20040;-60
2022/09/09 05:46:25;;;;;;;6.22;4.97;;;14.60;99.90;;;;;;5070796;28;20430;-61
2022/09/09 05:48:52;;;;;;;9.30;5.60;;;14.60;99.90;;;;;;5070909;28;20123;-62
2022/09/09 05:51:24;;;;;;;8.30;5.72;;;14.50;99.90;;;;;;5065140;28;20585;-61
2022/09/09 05:53:54;;;;;;;7.13;5.70;;;14.60;99.90;;;;;;5062219;28;20090;-56
2022/09/09 05:56:23;;;;;;;7.07;5.20;;;14.60;99.90;;;;;;5061845;28;20495;-56
2022/09/09 05:58:50;;;;;;;14.13;6.10;;;14.60;99.90;;;;;;5060290;28;20040;-56
2022/09/09 06:01:18;;;;;;;8.30;5.25;;;14.60;99.90;;;;;;5061790;28;20048;-58
2022/09/09 06:03:46;;;;;;;5.22;4.50;;;14.60;99.90;;;;;;5062717;28;20044;-56
2022/09/09 06:06:15;;;;;;;6.28;5.05;;;14.60;99.90;;;;;;5042475;28;20097;-56
2022/09/09 06:08:44;;;;;;;6.32;4.45;;;14.60;99.90;;;;;;5067955;28;20204;-56
2022/09/09 06:11:18;;;;;;;6.88;4.88;;;15.70;99.90;;;;;;5052245;28;20523;-56
2022/09/09 06:13:44;;;;;;;8.23;5.10;;;14.70;99.90;;;;;;5066305;28;20769;-56
2022/09/09 06:16:15;;;;;;;6.63;4.57;;;14.70;99.90;;;;;;5070213;28;20399;-56
2022/09/09 06:18:42;;;;;;;7.20;5.35;;;14.70;99.90;;;;;;5064603;28;20051;-56
2022/09/09 06:21:17;;;;;;;5.35;4.43;;;14.70;99.90;;;;;;5070876;28;20367;-56
2022/09/09 06:23:44;;;;;;;6.22;4.80;;;14.80;99.90;;;;;;5070690;28;20527;-56
2022/09/09 06:26:17;;;;;;;5.28;4.57;;;14.90;99.90;;;;;;5070506;28;20090;-56
2022/09/09 06:28:45;;;;;;;5.65;4.72;;;14.90;99.90;;;;;;5070121;28;20095;-56
2022/09/09 06:31:12;;;;;;;6.60;5.10;;;15.20;99.90;;;;;;5069458;28;20070;-56
2022/09/09 06:33:41;;;;;;;6.65;5.50;;;15.00;99.90;;;;;;5069661;28;20070;-56
2022/09/09 06:36:15;;;;;;;6.32;5.40;;;15.10;99.90;;;;;;5068381;28;20132;-56
2022/09/09 06:38:42;;;;;;;7.00;5.00;;;15.10;99.90;;;;;;5069062;28;20052;-56
2022/09/09 06:41:09;;;;;;;7.65;5.75;;;15.10;99.90;;;;;;5069720;28;20040;-56
2022/09/09 06:43:35;;;;;;;7.90;4.68;;;15.20;99.90;;;;;;5060798;28;20153;-56
2022/09/09 06:46:08;;;;;;;10.35;5.43;;;15.30;99.90;;;;;;5068959;28;20086;-56
2022/09/09 06:48:33;;;;;;;8.15;5.10;;;15.30;99.90;;;;;;5047858;28;20051;-56
2022/09/09 06:51:11;;;;;;;6.68;5.03;;;15.40;99.90;;;;;;5060189;28;20040;-57
2022/09/09 06:53:38;;;;;;;5.57;4.50;;;15.50;99.90;;;;;;5062892;28;20045;-56
2022/09/09 06:56:09;;;;;;;5.63;4.75;;;15.60;99.90;;;;;;5060003;28;20520;-57
2022/09/09 06:58:36;;;;;;;8.40;5.90;;;15.60;99.90;;;;;;5062556;28;20052;-57
2022/09/09 07:01:04;;;;;;;6.88;5.20;;;15.60;99.90;;;;;;5062682;28;20127;-56
2022/09/09 07:03:30;;;;;;;6.43;5.07;;;15.80;99.90;;;;;;5063761;28;20091;-57
2022/09/09 07:05:56;;;;;;;8.32;5.63;;;15.80;99.90;;;;;;5061786;28;20454;-56
2022/09/09 07:08:22;;;;;;;7.53;4.70;;;15.90;99.90;;;;;;5057759;28;20447;-56
2022/09/09 07:10:49;;;;;;;7.30;4.75;;;16.20;99.90;;;;;;5062148;28;20548;-56
2022/09/09 07:13:15;;;;;;;4.70;4.20;;;16.40;99.90;;;;;;5061758;28;20111;-56
2022/09/09 07:15:41;;;;;;;7.68;5.65;;;16.50;99.90;;;;;;5063181;28;20071;-56
2022/09/09 07:18:08;;;;;;;7.57;4.80;;;16.60;99.90;;;;;;5061759;28;20080;-56
2022/09/09 07:20:34;;;;;;;6.43;4.20;;;16.60;99.90;;;;;;5066791;28;20049;-56
2022/09/09 07:23:00;;;;;;;5.07;3.97;;;16.60;99.90;;;;;;5069723;28;20589;-56
2022/09/09 07:25:28;;;;;;;5.03;4.30;;;16.70;99.90;;;;;;5069189;28;20056;-56
2022/09/09 07:27:54;;;;;;;4.80;4.18;;;16.90;99.90;;;;;;5069087;28;20118;-56
2022/09/09 07:30:21;;;;;;;7.88;4.38;;;17.00;99.90;;;;;;5034650;28;20052;-56
2022/09/09 07:32:46;;;;;;;7.10;3.85;;;17.00;99.90;;;;;;5050655;28;20084;-56
2022/09/09 07:35:12;;;;;;;4.50;4.07;;;17.30;99.90;;;;;;5051575;28;20075;-56
2022/09/09 07:37:38;;;;;;;7.35;4.50;;;17.50;99.90;;;;;;5069237;28;20386;-56
2022/09/09 07:40:05;;;;;;;6.78;3.85;;;17.60;99.90;;;;;;5050566;28;20087;-56
2022/09/09 07:42:31;;;;;;;5.85;4.43;;;17.80;99.90;;;;;;5068439;28;20533;-56
2022/09/09 07:44:56;;;;;;;4.10;3.13;;;18.00;99.90;;;;;;5069058;28;20083;-57
2022/09/09 07:47:24;;;;;;;5.45;4.07;;;18.10;99.90;;;;;;5063984;28;20040;-57
2022/09/09 07:49:50;;;;;;;4.95;3.50;;;18.20;99.90;;;;;;5064413;28;20502;-57
2022/09/09 07:52:16;;;;;;;6.38;3.58;;;18.30;99.90;;;;;;5062787;28;20432;-56
2022/09/09 07:54:42;;;;;;;5.70;3.92;;;18.30;99.90;;;;;;5064446;28;20521;-56
2022/09/09 07:57:08;;;;;;;4.63;3.50;;;18.20;99.90;;;;;;5064500;28;20114;-56
2022/09/09 07:59:33;;;;;;;4.70;3.10;;;18.20;99.90;;;;;;5063935;28;20054;-57
2022/09/09 08:01:59;;;;;;;5.78;3.20;;;18.40;99.90;;;;;;5064671;28;20390;-56
2022/09/09 08:04:26;;;;;;;3.83;2.97;;;18.30;99.90;;;;;;5029242;28;20052;-56
2022/09/09 08:06:53;;;;;;;4.68;3.33;;;18.50;99.90;;;;;;5061605;28;20044;-57
2022/09/09 08:09:19;;;;;;;5.85;2.95;;;18.80;99.90;;;;;;5063960;28;20052;-56
2022/09/09 08:11:45;;;;;;;4.18;2.80;;;19.00;99.90;;;;;;5065371;28;20053;-57
2022/09/09 08:14:11;;;;;;;3.17;2.88;;;19.20;99.90;;;;;;5063782;28;20371;-57
2022/09/09 08:16:41;;;;;;;7.38;4.20;;;19.40;99.90;;;;;;5058859;28;20048;-57
2022/09/09 08:19:07;;;;;;;8.63;2.97;;;19.40;99.90;;;;;;5064304;28;20115;-56
2022/09/09 08:21:34;;;;;;;3.80;2.30;;;19.70;99.90;;;;;;5057495;28;20087;-57
2022/09/09 08:24:01;;;;;;;3.10;2.35;;;20.20;99.90;;;;;;5046787;28;20052;-57
2022/09/09 08:26:29;;;;;;;4.97;3.45;;;20.70;99.90;;;;;;5064772;28;20079;-57
2022/09/09 08:28:57;;;;;;;5.82;2.78;;;21.00;99.90;;;;;;5064297;28;20602;-60
2022/09/09 08:31:24;;;;;;;3.55;2.55;;;20.70;99.90;;;;;;5064306;28;20483;-60
2022/09/09 08:33:50;;;;;;;3.47;2.28;;;20.50;99.90;;;;;;5064989;28;20071;-59
2022/09/09 08:36:21;;;;;;;4.07;2.40;;;20.80;99.90;;;;;;5064640;28;20497;-57
2022/09/09 08:38:54;;;;;;;5.03;2.55;;;21.30;99.90;;;;;;5064258;28;20055;-58
2022/09/09 08:41:31;;;;;;;3.60;2.50;;;21.00;99.90;;;;;;5046124;28;20123;-61
2022/09/09 08:44:24;;;;;;;2.97;2.22;;;20.70;99.90;;;;;;5064189;28;20147;-57
2022/09/09 08:47:11;;;;;;;4.25;2.47;;;21.00;99.90;;;;;;5057430;28;20498;-57
2022/09/09 08:50:05;;;;;;;3.08;2.25;;;21.30;99.90;;;;;;5064807;28;20041;-57
2022/09/09 08:52:31;;;;;;;5.43;3.13;;;21.20;99.90;;;;;;5057446;28;20048;-57
2022/09/09 08:55:03;;;;;;;5.65;2.95;;;21.30;99.90;;;;;;5055807;28;20453;-57
2022/09/09 08:57:32;;;;;;;4.43;2.65;;;21.00;99.90;;;;;;5053772;28;20339;-57
2022/09/09 08:59:59;;;;;;;5.25;2.78;;;21.10;99.90;;;;;;5056740;28;20041;-57
2022/09/09 09:02:38;;;;;;;4.50;2.58;;;21.00;99.90;;;;;;5061521;28;20264;-57
2022/09/09 09:05:06;;;;;;;4.05;2.70;;;21.10;99.90;;;;;;5058935;28;20037;-57
2022/09/09 09:07:42;;;;;;;3.58;2.58;;;21.30;99.90;;;;;;5036262;28;20052;-57
2022/09/09 09:10:16;;;;;;;6.40;3.13;;;21.50;99.90;;;;;;5068143;28;20490;-57
2022/09/09 09:12:47;;;;;;;6.10;2.95;;;21.80;99.90;;;;;;5068962;28;20045;-57
2022/09/09 09:15:25;;;;;;;2.60;2.30;;;21.60;99.90;;;;;;5068173;28;20079;-57
2022/09/09 09:17:51;;;;;;;2.28;2.08;;;21.60;99.90;;;;;;5059051;28;20040;-57
2022/09/09 09:20:33;;;;;;;3.75;2.08;;;22.10;99.90;;;;;;5067755;28;20051;-57
2022/09/09 09:23:03;;;;;;;4.15;2.20;;;22.20;99.90;;;;;;5068286;28;20629;-57
2022/09/09 09:25:39;;;;;;;5.00;2.00;;;22.30;99.90;;;;;;5067972;28;20145;-57
2022/09/09 09:28:23;;;;;;;2.90;1.58;;;23.20;99.90;;;;;;5067986;28;20052;-57
2022/09/09 09:31:01;;;;;;;4.38;2.20;;;23.60;99.90;;;;;;5060952;28;20057;-57
2022/09/09 09:33:50;;;;;;;4.78;1.80;;;23.60;99.90;;;;;;5067168;28;20654;-57
2022/09/09 09:36:16;;;;;;;3.47;2.67;;;24.00;99.90;;;;;;5066356;28;20057;-58
2022/09/09 09:38:59;;;;;;;5.72;1.70;;;23.70;99.90;;;;;;5048650;28;20525;-57
2022/09/09 09:41:37;;;;;;;7.70;2.40;;;22.80;99.90;;;;;;5064676;28;20048;-57
2022/09/09 09:44:04;;;;;;;4.88;2.25;;;23.10;99.90;;;;;;5056470;28;20294;-57
2022/09/09 09:46:30;;;;;;;4.25;1.85;;;23.10;99.90;;;;;;5059699;28;20407;-57
2022/09/09 09:49:01;;;;;;;8.40;2.05;;;23.40;99.90;;;;;;5057807;28;20051;-57
2022/09/09 09:51:28;;;;;;;6.25;2.47;;;23.80;99.90;;;;;;5059276;28;20040;-57
2022/09/09 09:53:54;;;;;;;9.43;2.40;;;23.30;99.90;;;;;;5061494;28;20048;-57
2022/09/09 09:56:32;;;;;;;9.98;4.13;;;22.80;99.90;;;;;;5058462;28;20041;-57
2022/09/09 09:58:58;;;;;;;5.60;2.05;;;23.40;99.90;;;;;;5063201;28;20086;-57
2022/09/09 10:01:27;;;;;;;3.13;2.13;;;23.30;99.90;;;;;;5066910;28;20055;-65
2022/09/09 10:04:15;;;;;;;4.70;2.28;;;23.10;99.90;;;;;;5067390;28;20076;-63
2022/09/09 10:06:41;;;;;;;7.18;2.60;;;22.70;99.90;;;;;;5066791;28;20049;-60
2022/09/09 10:09:26;;;;;;;5.18;2.13;;;22.10;99.90;;;;;;5049242;28;20052;-59
2022/09/09 10:12:34;;;;;;;8.43;1.45;;;22.00;99.90;;;;;;5052595;28;20048;-61
2022/09/09 10:15:02;;;;;;;10.57;2.05;;;21.80;99.90;;;;;;5055276;28;20479;-62
2022/09/09 10:17:47;;;;;;;4.32;2.00;;;22.10;99.90;;;;;;5066204;28;20040;-63
2022/09/09 10:20:31;;;;;;;;;;;22.60;99.90;;;;;;5067537;28;20036;-64
2022/09/09 10:23:12;;;;;;;4.15;1.42;;;22.70;99.90;;;;;;5067387;28;19931;-64
2022/09/09 10:26:00;;;;;;;4.38;1.65;;;23.20;99.90;;;;;;5067097;28;20044;-64
2022/09/09 10:28:47;;;;;;;7.25;2.40;;;23.20;99.90;;;;;;5064803;28;20468;-58
2022/09/09 10:31:38;;;;;;;3.85;1.85;;;23.30;99.90;;;;;;5030602;28;20052;-61
2022/09/09 10:34:15;;;;;;;4.90;1.65;;;23.70;99.90;;;;;;5056693;28;20109;-61
2022/09/09 10:36:48;;;;;;;5.20;1.90;;;24.00;99.90;;;;;;5055326;28;20350;-65
2022/09/09 10:39:37;;;;;;;5.35;2.10;;;24.10;99.90;;;;;;5054617;28;20047;-62
2022/09/09 10:42:18;;;;;;;4.63;1.63;;;24.20;99.90;;;;;;5055507;28;20051;-60
2022/09/09 10:45:04;;;;;;;5.22;1.48;;;24.00;99.90;;;;;;5066625;28;20076;-62
2022/09/09 10:47:38;;;;;;;8.50;1.98;;;24.20;99.90;;;;;;5066867;28;20052;-63
2022/09/09 10:50:31;;;;;;;4.38;1.55;;;24.00;99.90;;;;;;5066385;28;20040;-64
2022/09/09 10:53:00;;;;;;;3.35;1.13;;;24.20;99.90;;;;;;5048759;28;20059;-64
2022/09/09 10:55:40;;;;;;;7.53;1.48;;;24.40;99.90;;;;;;5065722;28;20118;-58
2022/09/09 10:58:34;;;;;;;7.28;1.67;;;24.00;99.90;;;;;;5066721;28;20079;-58
2022/09/09 11:01:09;;;;;;;7.10;1.77;;;24.20;99.90;;;;;;5066509;28;20048;-58
2022/09/09 11:03:40;;;;;;;6.40;1.80;;;24.60;99.90;;;;;;5047677;28;20806;-58
2022/09/09 11:06:16;;;;;;;5.28;1.63;;;24.80;99.90;;;;;;5066253;28;20044;-58
2022/09/09 11:08:42;;;;;;;4.95;2.03;;;24.50;99.90;;;;;;5066271;28;20101;-58
2022/09/09 11:11:14;;;;;;;3.25;1.48;;;24.80;99.90;;;;;;5053475;28;20507;-59
2022/09/09 11:14:02;;;;;;;7.47;1.42;;;24.30;99.90;;;;;;5066051;28;20440;-59
2022/09/09 11:16:41;;;;;;;2.13;0.98;;;23.80;99.90;;;;;;5066691;28;20133;-59
2022/09/09 11:19:34;;;;;;;2.33;0.98;;;23.70;99.90;;;;;;5061414;28;20494;-59
2022/09/09 11:22:04;;;;;;;2.53;1.35;;;23.00;99.90;;;;;;5051964;28;20468;-58
2022/09/09 11:24:41;;;;;;;7.50;2.42;;;22.60;99.90;;;;;;5066412;28;20159;-60
2022/09/09 11:27:11;;;;;;;5.35;1.58;;;23.10;99.90;;;;;;5065775;28;20544;-60
2022/09/09 11:30:01;;;;;;;3.97;1.73;;;25.50;99.90;;;;;;5065488;28;20405;-58
2022/09/09 11:32:49;;;;;;;5.15;1.75;;;25.50;99.90;;;;;;5066226;28;20056;-58
2022/09/09 11:35:46;;;;;;;4.07;1.13;;;23.70;99.90;;;;;;5071918;28;20060;-57
2022/09/09 11:38:34;;;;;;;7.22;1.40;;;24.70;99.90;;;;;;5065801;28;20051;-57
2022/09/09 11:41:07;;;;;;;2.08;1.00;;;24.30;99.90;;;;;;5065889;28;20533;-57
2022/09/09 11:43:43;;;;;;;5.72;1.25;;;24.10;99.90;;;;;;5064442;28;20363;-57
2022/09/09 11:46:10;;;;;;;3.08;1.13;;;24.10;99.90;;;;;;5064001;28;20101;-57
2022/09/09 11:48:44;;;;;;;4.70;1.10;;;25.80;99.90;;;;;;5064719;28;20052;-57
2022/09/09 11:51:30;;;;;;;3.83;1.25;;;27.20;99.90;;;;;;5064739;28;20141;-57
2022/09/09 11:54:01;;;;;;;3.15;1.08;;;27.40;99.90;;;;;;5050088;28;20515;-64
2022/09/09 11:56:32;;;;;;;6.25;1.35;;;26.90;99.90;;;;;;5065408;28;20399;-63
2022/09/09 11:59:01;;;;;;;3.75;1.33;;;25.00;99.90;;;;;;5065371;28;20044;-62
2022/09/09 12:01:43;;;;;;;6.25;1.02;;;24.60;99.90;;;;;;5064386;28;20053;-61
2022/09/09 12:04:09;;;;;;;13.07;1.88;;;23.80;99.90;;;;;;5064778;28;20050;-63
2022/09/09 12:06:57;;;;;;;1.85;0.70;;;23.20;99.90;;;;;;5065842;28;20052;-61
2022/09/09 12:09:48;;;;;;;1.73;0.68;;;22.90;99.90;;;;;;5065522;28;20114;-63
2022/09/09 12:12:14;;;;;;;9.25;2.20;;;22.50;99.90;;;;;;5054791;28;20087;-57
2022/09/09 12:14:43;;;;;;;10.88;1.90;;;22.10;99.90;;;;;;5061090;28;20131;-61
2022/09/09 12:17:14;;;;;;;8.48;1.55;;;21.30;99.90;;;;;;5045334;28;20535;-60
2022/09/09 12:19:41;;;;;;;7.57;1.65;;;21.50;99.90;;;;;;5064724;28;20055;-57
2022/09/09 12:22:32;;;;;;;3.15;1.15;;;21.50;99.90;;;;;;5064616;28;20044;-58
2022/09/09 12:25:37;;;;;;;4.63;1.42;;;22.30;99.90;;;;;;5046819;28;20051;-60
2022/09/09 12:28:11;;;;;;;;;;;23.10;99.90;;;;;;5051109;28;20051;-59
2022/09/09 12:31:02;;;;;;;4.93;1.75;;;23.30;99.90;;;;;;5056909;28;19925;-58
2022/09/09 12:33:35;;;;;;;7.18;1.52;;;23.40;99.90;;;;;;5055499;28;20124;-58
2022/09/09 12:36:04;;;;;;;3.78;1.98;;;23.70;99.90;;;;;;5055135;28;20155;-58
2022/09/09 12:38:34;;;;;;;4.18;1.25;;;24.10;99.90;;;;;;5054252;28;20040;-57
2022/09/09 12:41:00;;;;;;;2.72;1.10;;;24.30;99.90;;;;;;5052272;28;20045;-57
2022/09/09 12:43:27;;;;;;;2.95;1.15;;;24.80;99.90;;;;;;5058694;28;20051;-57
2022/09/09 12:46:03;;;;;;;3.35;0.85;;;25.30;99.90;;;;;;5066808;28;20043;-57
2022/09/09 12:48:41;;;;;;;7.70;1.42;;;24.80;99.90;;;;;;5046469;28;20056;-58
2022/09/09 12:51:28;;;;;;;3.53;1.65;;;25.20;99.90;;;;;;5068141;28;20207;-57
2022/09/09 12:53:54;;;;;;;3.33;1.27;;;25.90;99.90;;;;;;5052720;28;20052;-57
2022/09/09 12:56:23;;;;;;;5.75;1.08;;;25.40;99.90;;;;;;5067751;28;20052;-57
2022/09/09 12:58:51;;;;;;;2.22;0.82;;;25.00;99.90;;;;;;5068174;28;20045;-58
2022/09/09 13:01:35;;;;;;;2.60;1.20;;;24.50;99.90;;;;;;5051155;28;20049;-58
2022/09/09 13:04:01;;;;;;;5.80;0.98;;;25.00;99.90;;;;;;5052651;28;20045;-60
2022/09/09 13:06:31;;;;;;;5.03;1.00;;;27.60;99.90;;;;;;5058408;28;20076;-59
2022/09/09 13:08:59;;;;;;;4.07;1.98;;;29.00;99.90;;;;;;5056141;28;20056;-57
2022/09/09 13:11:42;;;;;;;2.83;1.20;;;29.80;99.90;;;;;;5018195;28;20049;-58
2022/09/09 13:14:19;;;;;;;3.90;0.93;;;30.00;99.90;;;;;;5050593;28;20037;-58